createdAt,value
2015-09-25T00:00:00.939Z,1.53
2015-09-25T00:00:13.329Z,1.46
2015-09-25T00:00:25.739Z,1.53
2015-09-25T00:00:38.145Z,1.48
2015-09-25T00:00:50.582Z,1.51
2015-09-25T00:01:02.989Z,1.56
2015-09-25T00:01:15.410Z,1.48
2015-09-25T00:01:27.820Z,1.47
2015-09-25T00:01:40.210Z,1.46
2015-09-25T00:01:52.617Z,1.47
2015-09-25T00:02:05.007Z,1.42
2015-09-25T00:02:17.413Z,1.5
2015-09-25T00:02:29.806Z,1.39
2015-09-25T00:02:42.197Z,1.4
2015-09-25T00:02:54.603Z,1.44
2015-09-25T00:03:07.025Z,1.46
2015-09-25T00:03:18.728Z,1.39
2015-09-25T00:03:31.122Z,1.42
2015-09-25T00:03:43.512Z,1.44
2015-09-25T00:03:55.903Z,1.36
2015-09-25T00:04:08.309Z,1.35
2015-09-25T00:04:20.700Z,1.38
2015-09-25T00:04:33.140Z,1.33
2015-09-25T00:04:45.562Z,1.38
2015-09-25T00:04:57.984Z,1.28
2015-09-25T00:05:10.375Z,1.35
2015-09-25T00:05:22.784Z,1.33
2015-09-25T00:05:35.174Z,1.33
2015-09-25T00:05:47.565Z,1.35
2015-09-25T00:05:59.956Z,1.22
2015-09-25T00:06:12.362Z,1.33
2015-09-25T00:06:24.770Z,1.36
2015-09-25T00:06:37.192Z,1.28
2015-09-25T00:06:49.614Z,1.28
2015-09-25T00:07:02.036Z,1.29
2015-09-25T00:07:14.426Z,1.33
2015-09-25T00:07:26.821Z,1.3
2015-09-25T00:07:39.212Z,1.21
2015-09-25T00:07:51.868Z,1.28
2015-09-25T00:08:04.259Z,1.17
2015-09-25T00:08:16.665Z,1.24
2015-09-25T00:08:29.073Z,1.28
2015-09-25T00:08:41.464Z,1.22
2015-09-25T00:08:53.886Z,1.3
2015-09-25T00:09:06.307Z,1.32
2015-09-25T00:09:18.729Z,1.29
2015-09-25T00:09:31.139Z,1.28
2015-09-25T00:09:43.529Z,1.24
2015-09-25T00:09:55.935Z,1.32
2015-09-25T00:10:08.326Z,1.29
2015-09-25T00:10:20.717Z,1.35
2015-09-25T00:10:33.110Z,1.38
2015-09-25T00:10:45.517Z,1.3
2015-09-25T00:10:57.923Z,1.33
2015-09-25T00:11:10.345Z,1.38
2015-09-25T00:11:22.751Z,1.38
2015-09-25T00:11:35.145Z,1.35
2015-09-25T00:11:47.582Z,1.44
2015-09-25T00:11:59.988Z,1.38
2015-09-25T00:12:12.379Z,1.36
2015-09-25T00:12:24.785Z,1.32
2015-09-25T00:12:37.208Z,1.39
2015-09-25T00:12:49.630Z,1.46
2015-09-25T00:13:02.052Z,1.44
2015-09-25T00:13:14.474Z,1.42
2015-09-25T00:13:26.864Z,1.47
2015-09-25T00:13:39.258Z,1.4
2015-09-25T00:13:51.649Z,1.51
2015-09-25T00:14:04.055Z,1.44
2015-09-25T00:14:16.445Z,1.42
2015-09-25T00:14:28.855Z,1.48
2015-09-25T00:14:41.261Z,1.51
2015-09-25T00:14:53.667Z,1.42
2015-09-25T00:15:06.089Z,1.48
2015-09-25T00:15:18.527Z,1.51
2015-09-25T00:15:30.936Z,1.42
2015-09-25T00:15:43.311Z,1.39
2015-09-25T00:15:54.998Z,1.48
2015-09-25T00:16:07.389Z,1.46
2015-09-25T00:16:19.639Z,1.42
2015-09-25T00:16:32.033Z,1.47
2015-09-25T00:16:44.423Z,1.42
2015-09-25T00:16:56.829Z,1.38
2015-09-25T00:17:09.236Z,1.44
2015-09-25T00:17:21.658Z,1.38
2015-09-25T00:17:33.378Z,1.4
2015-09-25T00:17:45.816Z,1.4
2015-09-25T00:17:58.206Z,1.44
2015-09-25T00:18:10.597Z,1.46
2015-09-25T00:18:23.003Z,1.46
2015-09-25T00:18:35.398Z,1.46
2015-09-25T00:18:47.789Z,1.36
2015-09-25T00:19:00.195Z,1.4
2015-09-25T00:19:12.617Z,1.3
2015-09-25T00:19:25.039Z,1.32
2015-09-25T00:19:37.462Z,1.33
2015-09-25T00:19:49.884Z,1.32
2015-09-25T00:20:02.275Z,1.35
2015-09-25T00:20:14.681Z,1.35
2015-09-25T00:20:27.072Z,1.33
2015-09-25T00:20:39.465Z,1.28
2015-09-25T00:20:51.856Z,1.35
2015-09-25T00:21:04.278Z,1.32
2015-09-25T00:21:16.684Z,1.38
2015-09-25T00:21:29.106Z,1.29
2015-09-25T00:21:41.530Z,1.33
2015-09-25T00:21:53.921Z,1.29
2015-09-25T00:22:06.311Z,1.36
2015-09-25T00:22:18.717Z,1.36
2015-09-25T00:22:31.108Z,1.42
2015-09-25T00:22:43.517Z,1.4
2015-09-25T00:22:55.908Z,1.36
2015-09-25T00:23:08.314Z,1.38
2015-09-25T00:23:20.705Z,1.3
2015-09-25T00:23:33.127Z,1.32
2015-09-25T00:23:45.536Z,1.44
2015-09-25T00:23:57.927Z,1.38
2015-09-25T00:24:10.333Z,1.47
2015-09-25T00:24:22.723Z,1.47
2015-09-25T00:24:35.114Z,1.46
2015-09-25T00:24:47.523Z,1.4
2015-09-25T00:24:59.961Z,1.42
2015-09-25T00:25:12.398Z,1.47
2015-09-25T00:25:24.836Z,1.4
2015-09-25T00:25:37.258Z,1.47
2015-09-25T00:25:49.666Z,1.4
2015-09-25T00:26:02.057Z,1.4
2015-09-25T00:26:14.447Z,1.38
2015-09-25T00:26:26.838Z,1.38
2015-09-25T00:26:39.244Z,1.46
2015-09-25T00:26:51.638Z,1.47
2015-09-25T00:27:04.044Z,1.4
2015-09-25T00:27:16.450Z,1.51
2015-09-25T00:27:28.903Z,1.48
2015-09-25T00:27:41.325Z,1.5
2015-09-25T00:27:53.750Z,1.46
2015-09-25T00:28:06.156Z,1.48
2015-09-25T00:28:18.547Z,1.51
2015-09-25T00:28:30.938Z,1.5
2015-09-25T00:28:43.344Z,1.44
2015-09-25T00:28:55.753Z,1.51
2015-09-25T00:29:08.159Z,1.47
2015-09-25T00:29:20.566Z,1.47
2015-09-25T00:29:32.987Z,1.44
2015-09-25T00:29:45.412Z,1.48
2015-09-25T00:29:57.834Z,1.48
2015-09-25T00:30:10.225Z,1.51
2015-09-25T00:30:22.615Z,1.51
2015-09-25T00:30:35.006Z,1.5
2015-09-25T00:30:47.414Z,1.44
2015-09-25T00:30:59.805Z,1.47
2015-09-25T00:31:12.211Z,1.51
2015-09-25T00:31:24.602Z,1.46
2015-09-25T00:31:37.024Z,1.4
2015-09-25T00:31:49.449Z,1.48
2015-09-25T00:32:01.886Z,1.44
2015-09-25T00:32:14.292Z,1.47
2015-09-25T00:32:26.683Z,1.42
2015-09-25T00:32:39.120Z,1.47
2015-09-25T00:32:51.514Z,1.48
2015-09-25T00:33:03.905Z,1.5
2015-09-25T00:33:16.311Z,1.47
2015-09-25T00:33:28.702Z,1.5
2015-09-25T00:33:41.108Z,1.4
2015-09-25T00:33:53.516Z,1.42
2015-09-25T00:34:05.922Z,1.46
2015-09-25T00:34:18.375Z,1.4
2015-09-25T00:34:30.797Z,1.38
2015-09-25T00:34:43.219Z,1.4
2015-09-25T00:34:55.613Z,1.36
2015-09-25T00:35:08.003Z,1.4
2015-09-25T00:35:20.410Z,1.4
2015-09-25T00:35:32.800Z,1.44
2015-09-25T00:35:45.191Z,1.42
2015-09-25T00:35:57.585Z,1.42
2015-09-25T00:36:09.991Z,1.47
2015-09-25T00:36:22.397Z,1.42
2015-09-25T00:36:34.647Z,1.4
2015-09-25T00:36:47.069Z,1.39
2015-09-25T00:36:59.321Z,1.47
2015-09-25T00:37:11.712Z,1.4
2015-09-25T00:37:24.118Z,1.4
2015-09-25T00:37:36.508Z,1.42
2015-09-25T00:37:48.899Z,1.47
2015-09-25T00:38:01.308Z,1.4
2015-09-25T00:38:13.715Z,1.46
2015-09-25T00:38:26.136Z,1.4
2015-09-25T00:38:38.543Z,1.44
2015-09-25T00:38:50.933Z,1.33
2015-09-25T00:39:03.327Z,1.35
2015-09-25T00:39:15.718Z,1.47
2015-09-25T00:39:28.124Z,1.36
2015-09-25T00:39:40.499Z,1.33
2015-09-25T00:39:52.889Z,1.42
2015-09-25T00:40:05.299Z,1.44
2015-09-25T00:40:17.721Z,1.44
2015-09-25T00:40:30.142Z,1.38
2015-09-25T00:40:41.846Z,1.33
2015-09-25T00:40:54.252Z,1.38
2015-09-25T00:41:06.644Z,1.36
2015-09-25T00:41:19.035Z,1.44
2015-09-25T00:41:31.426Z,1.32
2015-09-25T00:41:43.832Z,1.36
2015-09-25T00:41:56.223Z,1.33
2015-09-25T00:42:08.648Z,1.33
2015-09-25T00:42:21.055Z,1.35
2015-09-25T00:42:33.477Z,1.36
2015-09-25T00:42:45.898Z,1.32
2015-09-25T00:42:58.322Z,1.28
2015-09-25T00:43:10.713Z,1.35
2015-09-25T00:43:23.104Z,1.28
2015-09-25T00:43:35.494Z,1.3
2015-09-25T00:43:47.885Z,1.3
2015-09-25T00:44:00.278Z,1.38
2015-09-25T00:44:12.669Z,1.3
2015-09-25T00:44:25.060Z,1.35
2015-09-25T00:44:37.466Z,1.33
2015-09-25T00:44:49.888Z,1.32
2015-09-25T00:45:01.610Z,1.26
2015-09-25T00:45:14.031Z,1.32
2015-09-25T00:45:26.422Z,1.26
2015-09-25T00:45:38.813Z,1.35
2015-09-25T00:45:51.203Z,1.3
2015-09-25T00:46:03.596Z,1.26
2015-09-25T00:46:15.987Z,1.24
2015-09-25T00:46:28.393Z,1.24
2015-09-25T00:46:40.799Z,1.28
2015-09-25T00:46:53.205Z,1.21
2015-09-25T00:47:05.630Z,1.22
2015-09-25T00:47:18.036Z,1.24
2015-09-25T00:47:30.443Z,1.18
2015-09-25T00:47:42.833Z,1.17
2015-09-25T00:47:55.224Z,1.22
2015-09-25T00:48:07.632Z,1.15
2015-09-25T00:48:20.023Z,1.24
2015-09-25T00:48:32.429Z,1.15
2015-09-25T00:48:44.867Z,1.21
2015-09-25T00:48:57.273Z,1.11
2015-09-25T00:49:09.698Z,1.17
2015-09-25T00:49:22.104Z,1.2
2015-09-25T00:49:34.479Z,1.15
2015-09-25T00:49:46.870Z,1.17
2015-09-25T00:49:59.276Z,1.1
2015-09-25T00:50:11.669Z,1.07
2015-09-25T00:50:23.919Z,1.21
2015-09-25T00:50:36.326Z,1.14
2015-09-25T00:50:48.732Z,1.14
2015-09-25T00:51:01.138Z,1.15
2015-09-25T00:51:13.578Z,1.08
2015-09-25T00:51:26.000Z,1.12
2015-09-25T00:51:38.421Z,1.07
2015-09-25T00:51:50.812Z,1.2
2015-09-25T00:52:03.046Z,1.17
2015-09-25T00:52:15.440Z,1.04
2015-09-25T00:52:27.831Z,1.08
2015-09-25T00:52:40.221Z,1.12
2015-09-25T00:52:52.612Z,1.15
2015-09-25T00:53:05.018Z,1.2
2015-09-25T00:53:17.427Z,1.15
2015-09-25T00:53:29.849Z,1.21
2015-09-25T00:53:42.271Z,1.15
2015-09-25T00:53:54.677Z,1.17
2015-09-25T00:54:07.118Z,1.17
2015-09-25T00:54:19.493Z,1.12
2015-09-25T00:54:31.915Z,1.24
2015-09-25T00:54:44.305Z,1.14
2015-09-25T00:54:56.696Z,1.18
2015-09-25T00:55:08.933Z,1.18
2015-09-25T00:55:21.340Z,1.24
2015-09-25T00:55:33.746Z,1.24
2015-09-25T00:55:46.152Z,1.24
2015-09-25T00:55:58.574Z,1.26
2015-09-25T00:56:11.015Z,1.28
2015-09-25T00:56:23.405Z,1.32
2015-09-25T00:56:35.796Z,1.3
2015-09-25T00:56:48.186Z,1.33
2015-09-25T00:57:00.593Z,1.28
2015-09-25T00:57:13.001Z,1.28
2015-09-25T00:57:25.392Z,1.29
2015-09-25T00:57:37.813Z,1.3
2015-09-25T00:57:50.220Z,1.29
2015-09-25T00:58:02.657Z,1.28
2015-09-25T00:58:15.066Z,1.36
2015-09-25T00:58:27.504Z,1.32
2015-09-25T00:58:39.941Z,1.32
2015-09-25T00:58:52.348Z,1.32
2015-09-25T00:59:04.801Z,1.3
2015-09-25T00:59:17.225Z,1.35
2015-09-25T00:59:29.615Z,1.24
2015-09-25T00:59:42.022Z,1.32
2015-09-25T00:59:54.397Z,1.3
2015-09-25T01:00:06.818Z,1.35
2015-09-25T01:00:19.229Z,1.39
2015-09-25T01:00:31.666Z,1.3
2015-09-25T01:00:44.088Z,1.36
2015-09-25T01:00:56.494Z,1.24
2015-09-25T01:01:08.885Z,1.39
2015-09-25T01:01:21.278Z,1.35
2015-09-25T01:01:33.684Z,1.42
2015-09-25T01:01:46.074Z,1.32
2015-09-25T01:01:58.481Z,1.38
2015-09-25T01:02:10.871Z,1.46
2015-09-25T01:02:23.281Z,1.4
2015-09-25T01:02:35.687Z,1.4
2015-09-25T01:02:48.109Z,1.5
2015-09-25T01:03:00.531Z,1.46
2015-09-25T01:03:12.937Z,1.47
2015-09-25T01:03:25.315Z,1.39
2015-09-25T01:03:37.721Z,1.44
2015-09-25T01:03:50.112Z,1.47
2015-09-25T01:04:02.502Z,1.44
2015-09-25T01:04:14.893Z,1.48
2015-09-25T01:04:27.302Z,1.4
2015-09-25T01:04:39.693Z,1.46
2015-09-25T01:04:52.130Z,1.46
2015-09-25T01:05:04.552Z,1.5
2015-09-25T01:05:16.974Z,1.48
2015-09-25T01:05:29.382Z,1.51
2015-09-25T01:05:41.773Z,1.5
2015-09-25T01:05:54.164Z,1.51
2015-09-25T01:06:06.570Z,1.5
2015-09-25T01:06:18.257Z,1.48
2015-09-25T01:06:30.495Z,1.48
2015-09-25T01:06:42.901Z,1.42
2015-09-25T01:06:55.307Z,1.5
2015-09-25T01:07:07.713Z,1.48
2015-09-25T01:07:20.135Z,1.44
2015-09-25T01:07:32.529Z,1.46
2015-09-25T01:07:44.201Z,1.44
2015-09-25T01:07:56.591Z,1.51
2015-09-25T01:08:08.998Z,1.53
2015-09-25T01:08:21.388Z,1.5
2015-09-25T01:08:33.781Z,1.51
2015-09-25T01:08:46.187Z,1.46
2015-09-25T01:08:58.578Z,1.51
2015-09-25T01:09:10.984Z,1.47
2015-09-25T01:09:23.268Z,1.5
2015-09-25T01:09:35.659Z,1.53
2015-09-25T01:09:48.034Z,1.47
2015-09-25T01:10:00.425Z,1.51
2015-09-25T01:10:12.831Z,1.56
2015-09-25T01:10:25.240Z,1.56
2015-09-25T01:10:37.631Z,1.53
2015-09-25T01:10:50.021Z,1.61
2015-09-25T01:11:02.428Z,1.6
2015-09-25T01:11:14.849Z,1.56
2015-09-25T01:11:27.258Z,1.56
2015-09-25T01:11:39.664Z,1.6
2015-09-25T01:11:52.055Z,1.54
2015-09-25T01:12:04.445Z,1.57
2015-09-25T01:12:16.836Z,1.53
2015-09-25T01:12:29.229Z,1.51
2015-09-25T01:12:41.620Z,1.53
2015-09-25T01:12:54.026Z,1.47
2015-09-25T01:13:06.433Z,1.51
2015-09-25T01:13:18.854Z,1.51
2015-09-25T01:13:31.264Z,1.51
2015-09-25T01:13:43.670Z,1.5
2015-09-25T01:13:56.045Z,1.53
2015-09-25T01:14:08.436Z,1.5
2015-09-25T01:14:20.842Z,1.5
2015-09-25T01:14:33.251Z,1.53
2015-09-25T01:14:45.657Z,1.47
2015-09-25T01:14:58.095Z,1.58
2015-09-25T01:15:10.532Z,1.48
2015-09-25T01:15:22.923Z,1.51
2015-09-25T01:15:35.317Z,1.5
2015-09-25T01:15:47.707Z,1.42
2015-09-25T01:16:00.113Z,1.46
2015-09-25T01:16:12.504Z,1.5
2015-09-25T01:16:24.895Z,1.51
2015-09-25T01:16:37.303Z,1.46
2015-09-25T01:16:49.725Z,1.46
2015-09-25T01:17:02.147Z,1.46
2015-09-25T01:17:14.553Z,1.48
2015-09-25T01:17:26.959Z,1.46
2015-09-25T01:17:39.352Z,1.44
2015-09-25T01:17:51.742Z,1.44
2015-09-25T01:18:04.149Z,1.47
2015-09-25T01:18:16.539Z,1.48
2015-09-25T01:18:28.930Z,1.51
2015-09-25T01:18:41.339Z,1.57
2015-09-25T01:18:53.745Z,1.56
2015-09-25T01:19:06.167Z,1.64
2015-09-25T01:19:18.574Z,1.64
2015-09-25T01:19:30.964Z,1.6
2015-09-25T01:19:43.358Z,1.64
2015-09-25T01:19:55.748Z,1.6
2015-09-25T01:20:08.139Z,1.58
2015-09-25T01:20:20.545Z,1.64
2015-09-25T01:20:32.936Z,1.61
2015-09-25T01:20:45.345Z,1.71
2015-09-25T01:20:57.751Z,1.65
2015-09-25T01:21:10.173Z,1.61
2015-09-25T01:21:22.611Z,1.71
2015-09-25T01:21:35.036Z,1.69
2015-09-25T01:21:47.458Z,1.72
2015-09-25T01:21:59.848Z,1.72
2015-09-25T01:22:12.239Z,1.71
2015-09-25T01:22:24.629Z,1.82
2015-09-25T01:22:37.038Z,1.72
2015-09-25T01:22:49.444Z,1.75
2015-09-25T01:23:01.881Z,1.83
2015-09-25T01:23:14.303Z,1.78
2015-09-25T01:23:26.710Z,1.92
2015-09-25T01:23:39.103Z,1.84
2015-09-25T01:23:51.494Z,1.83
2015-09-25T01:24:03.884Z,1.86
2015-09-25T01:24:16.291Z,1.9
2015-09-25T01:24:28.681Z,1.87
2015-09-25T01:24:41.074Z,1.86
2015-09-25T01:24:53.480Z,1.83
2015-09-25T01:25:05.871Z,1.87
2015-09-25T01:25:18.293Z,1.86
2015-09-25T01:25:30.715Z,1.89
2015-09-25T01:25:43.140Z,1.92
2015-09-25T01:25:54.859Z,2.02
2015-09-25T01:26:07.250Z,1.86
2015-09-25T01:26:19.640Z,1.93
2015-09-25T01:26:32.047Z,2.02
2015-09-25T01:26:44.439Z,2.02
2015-09-25T01:26:56.830Z,1.98
2015-09-25T01:27:09.221Z,2.04
2015-09-25T01:27:21.642Z,2.08
2015-09-25T01:27:34.049Z,2.15
2015-09-25T01:27:46.475Z,2.08
2015-09-25T01:27:58.928Z,2.09
2015-09-25T01:28:11.334Z,2.08
2015-09-25T01:28:23.006Z,2.18
2015-09-25T01:28:35.396Z,2.2
2015-09-25T01:28:47.805Z,2.16
2015-09-25T01:29:00.211Z,2.13
2015-09-25T01:29:12.617Z,2.11
2015-09-25T01:29:25.008Z,2.15
2015-09-25T01:29:37.398Z,2.16
2015-09-25T01:29:49.823Z,2.15
2015-09-25T01:30:02.245Z,2.12
2015-09-25T01:30:14.651Z,2.09
2015-09-25T01:30:27.042Z,2.12
2015-09-25T01:30:39.433Z,2.15
2015-09-25T01:30:51.825Z,2.16
2015-09-25T01:31:03.497Z,2.13
2015-09-25T01:31:15.903Z,2.22
2015-09-25T01:31:28.325Z,2.23
2015-09-25T01:31:40.747Z,2.2
2015-09-25T01:31:53.165Z,2.22
2015-09-25T01:32:05.556Z,2.27
2015-09-25T01:32:17.946Z,2.3
2015-09-25T01:32:30.353Z,2.3
2015-09-25T01:32:42.743Z,2.24
2015-09-25T01:32:55.126Z,2.23
2015-09-25T01:33:07.516Z,2.26
2015-09-25T01:33:19.923Z,2.29
2015-09-25T01:33:32.329Z,2.27
2015-09-25T01:33:44.751Z,2.33
2015-09-25T01:33:57.165Z,2.29
2015-09-25T01:34:09.602Z,2.38
2015-09-25T01:34:21.274Z,2.36
2015-09-25T01:34:33.680Z,2.3
2015-09-25T01:34:46.071Z,2.26
2015-09-25T01:34:58.454Z,2.31
2015-09-25T01:35:10.860Z,2.36
2015-09-25T01:35:23.250Z,2.36
2015-09-25T01:35:35.657Z,2.34
2015-09-25T01:35:48.063Z,2.38
2015-09-25T01:36:00.493Z,2.34
2015-09-25T01:36:12.915Z,2.41
2015-09-25T01:36:25.322Z,2.41
2015-09-25T01:36:37.712Z,2.41
2015-09-25T01:36:50.103Z,2.38
2015-09-25T01:37:02.490Z,2.4
2015-09-25T01:37:14.881Z,2.4
2015-09-25T01:37:27.272Z,2.4
2015-09-25T01:37:39.662Z,2.38
2015-09-25T01:37:52.068Z,2.34
2015-09-25T01:38:04.333Z,2.4
2015-09-25T01:38:16.739Z,2.42
2015-09-25T01:38:29.177Z,2.27
2015-09-25T01:38:41.599Z,2.3
2015-09-25T01:38:53.989Z,2.33
2015-09-25T01:39:06.396Z,2.26
2015-09-25T01:39:18.786Z,2.24
2015-09-25T01:39:31.177Z,2.24
2015-09-25T01:39:43.568Z,2.3
2015-09-25T01:39:55.817Z,2.29
2015-09-25T01:40:08.238Z,2.23
2015-09-25T01:40:20.660Z,2.23
2015-09-25T01:40:33.098Z,2.24
2015-09-25T01:40:45.488Z,2.27
2015-09-25T01:40:57.878Z,2.22
2015-09-25T01:41:10.284Z,2.15
2015-09-25T01:41:22.675Z,2.18
2015-09-25T01:41:35.066Z,2.15
2015-09-25T01:41:47.472Z,2.16
2015-09-25T01:41:59.879Z,2.15
2015-09-25T01:42:12.285Z,2.15
2015-09-25T01:42:24.707Z,2.16
2015-09-25T01:42:37.129Z,2.16
2015-09-25T01:42:49.520Z,2.16
2015-09-25T01:43:01.911Z,2.12
2015-09-25T01:43:14.302Z,2.08
2015-09-25T01:43:26.693Z,2.16
2015-09-25T01:43:39.099Z,2.08
2015-09-25T01:43:51.489Z,2.08
2015-09-25T01:44:03.897Z,2.06
2015-09-25T01:44:16.303Z,2.12
2015-09-25T01:44:28.740Z,2.12
2015-09-25T01:44:41.147Z,2.05
2015-09-25T01:44:53.537Z,2.01
2015-09-25T01:45:05.929Z,2.05
2015-09-25T01:45:18.320Z,2.06
2015-09-25T01:45:30.726Z,1.97
2015-09-25T01:45:43.116Z,1.94
2015-09-25T01:45:55.491Z,2.01
2015-09-25T01:46:07.900Z,1.98
2015-09-25T01:46:20.306Z,2.01
2015-09-25T01:46:32.728Z,1.98
2015-09-25T01:46:45.150Z,2.01
2015-09-25T01:46:57.587Z,2.02
2015-09-25T01:47:09.980Z,1.93
2015-09-25T01:47:22.370Z,1.93
2015-09-25T01:47:34.777Z,1.94
2015-09-25T01:47:47.183Z,1.86
2015-09-25T01:47:59.558Z,1.86
2015-09-25T01:48:11.966Z,1.92
2015-09-25T01:48:24.357Z,1.84
2015-09-25T01:48:36.779Z,1.89
2015-09-25T01:48:49.201Z,1.83
2015-09-25T01:49:01.622Z,1.87
2015-09-25T01:49:14.062Z,1.89
2015-09-25T01:49:26.499Z,1.78
2015-09-25T01:49:38.890Z,1.92
2015-09-25T01:49:51.281Z,1.83
2015-09-25T01:50:03.690Z,1.79
2015-09-25T01:50:16.081Z,1.87
2015-09-25T01:50:28.471Z,1.84
2015-09-25T01:50:40.862Z,1.84
2015-09-25T01:50:53.268Z,1.87
2015-09-25T01:51:05.692Z,1.78
2015-09-25T01:51:18.129Z,1.78
2015-09-25T01:51:30.551Z,1.71
2015-09-25T01:51:42.958Z,1.89
2015-09-25T01:51:55.348Z,1.83
2015-09-25T01:52:07.742Z,1.79
2015-09-25T01:52:20.132Z,1.83
2015-09-25T01:52:32.539Z,1.79
2015-09-25T01:52:44.929Z,1.76
2015-09-25T01:52:57.336Z,1.72
2015-09-25T01:53:09.744Z,1.79
2015-09-25T01:53:22.166Z,1.74
2015-09-25T01:53:34.588Z,1.79
2015-09-25T01:53:47.009Z,1.74
2015-09-25T01:53:59.447Z,1.69
2015-09-25T01:54:11.873Z,1.69
2015-09-25T01:54:24.263Z,1.78
2015-09-25T01:54:36.654Z,1.71
2015-09-25T01:54:49.045Z,1.71
2015-09-25T01:55:01.435Z,1.74
2015-09-25T01:55:13.828Z,1.72
2015-09-25T01:55:26.234Z,1.68
2015-09-25T01:55:38.656Z,1.68
2015-09-25T01:55:51.078Z,1.69
2015-09-25T01:56:03.500Z,1.64
2015-09-25T01:56:15.924Z,1.71
2015-09-25T01:56:28.314Z,1.71
2015-09-25T01:56:40.002Z,1.69
2015-09-25T01:56:52.392Z,1.66
2015-09-25T01:57:04.799Z,1.64
2015-09-25T01:57:17.209Z,1.71
2015-09-25T01:57:29.615Z,1.58
2015-09-25T01:57:42.021Z,1.68
2015-09-25T01:57:54.443Z,1.72
2015-09-25T01:58:06.834Z,1.58
2015-09-25T01:58:19.227Z,1.64
2015-09-25T01:58:31.633Z,1.65
2015-09-25T01:58:44.008Z,1.64
2015-09-25T01:58:56.430Z,1.58
2015-09-25T01:59:08.820Z,1.64
2015-09-25T01:59:21.214Z,1.65
2015-09-25T01:59:33.620Z,1.54
2015-09-25T01:59:46.026Z,1.56
2015-09-25T01:59:58.433Z,1.6
2015-09-25T02:00:10.823Z,1.68
2015-09-25T02:00:23.233Z,1.58
2015-09-25T02:00:35.623Z,1.58
2015-09-25T02:00:48.014Z,1.61
2015-09-25T02:01:00.404Z,1.54
2015-09-25T02:01:12.811Z,1.47
2015-09-25T02:01:25.219Z,1.61
2015-09-25T02:01:37.625Z,1.53
2015-09-25T02:01:50.047Z,1.47
2015-09-25T02:02:02.453Z,1.5
2015-09-25T02:02:14.860Z,1.53
2015-09-25T02:02:26.551Z,1.57
2015-09-25T02:02:38.942Z,1.48
2015-09-25T02:02:51.332Z,1.51
2015-09-25T02:03:03.739Z,1.46
2015-09-25T02:03:16.129Z,1.5
2015-09-25T02:03:28.522Z,1.44
2015-09-25T02:03:40.944Z,1.46
2015-09-25T02:03:52.631Z,1.57
2015-09-25T02:04:05.069Z,1.42
2015-09-25T02:04:16.787Z,1.42
2015-09-25T02:04:29.197Z,1.39
2015-09-25T02:04:41.587Z,1.5
2015-09-25T02:04:53.978Z,1.42
2015-09-25T02:05:06.369Z,1.48
2015-09-25T02:05:18.762Z,1.44
2015-09-25T02:05:31.168Z,1.4
2015-09-25T02:05:43.590Z,1.4
2015-09-25T02:05:55.997Z,1.42
2015-09-25T02:06:08.418Z,1.5
2015-09-25T02:06:20.842Z,1.47
2015-09-25T02:06:33.264Z,1.4
2015-09-25T02:06:45.530Z,1.42
2015-09-25T02:06:57.952Z,1.53
2015-09-25T02:07:09.624Z,1.38
2015-09-25T02:07:22.033Z,1.46
2015-09-25T02:07:34.423Z,1.36
2015-09-25T02:07:46.814Z,1.35
2015-09-25T02:07:59.205Z,1.47
2015-09-25T02:08:11.611Z,1.32
2015-09-25T02:08:24.019Z,1.36
2015-09-25T02:08:36.441Z,1.36
2015-09-25T02:08:48.847Z,1.3
2015-09-25T02:09:01.285Z,1.29
2015-09-25T02:09:13.675Z,1.32
2015-09-25T02:09:26.085Z,1.3
2015-09-25T02:09:38.475Z,1.32
2015-09-25T02:09:50.866Z,1.35
2015-09-25T02:10:03.272Z,1.32
2015-09-25T02:10:15.663Z,1.33
2015-09-25T02:10:28.088Z,1.38
2015-09-25T02:10:40.494Z,1.28
2015-09-25T02:10:52.916Z,1.28
2015-09-25T02:11:05.338Z,1.3
2015-09-25T02:11:17.744Z,1.3
2015-09-25T02:11:30.138Z,1.32
2015-09-25T02:11:42.544Z,1.36
2015-09-25T02:11:54.934Z,1.29
2015-09-25T02:12:07.325Z,1.28
2015-09-25T02:12:19.716Z,1.35
2015-09-25T02:12:32.109Z,1.26
2015-09-25T02:12:44.516Z,1.36
2015-09-25T02:12:56.937Z,1.26
2015-09-25T02:13:09.359Z,1.29
2015-09-25T02:13:21.781Z,1.28
2015-09-25T02:13:34.205Z,1.3
2015-09-25T02:13:46.596Z,1.29
2015-09-25T02:13:58.986Z,1.28
2015-09-25T02:14:11.377Z,1.3
2015-09-25T02:14:23.768Z,1.28
2015-09-25T02:14:36.177Z,1.2
2015-09-25T02:14:48.583Z,1.29
2015-09-25T02:15:00.989Z,1.22
2015-09-25T02:15:13.411Z,1.32
2015-09-25T02:15:25.833Z,1.28
2015-09-25T02:15:37.539Z,1.28
2015-09-25T02:15:49.930Z,1.28
2015-09-25T02:16:02.336Z,1.36
2015-09-25T02:16:14.727Z,1.3
2015-09-25T02:16:27.102Z,1.36
2015-09-25T02:16:39.511Z,1.36
2015-09-25T02:16:51.902Z,1.32
2015-09-25T02:17:04.308Z,1.33
2015-09-25T02:17:16.714Z,1.35
2015-09-25T02:17:29.152Z,1.35
2015-09-25T02:17:41.575Z,1.32
2015-09-25T02:17:53.966Z,1.38
2015-09-25T02:18:06.357Z,1.46
2015-09-25T02:18:18.747Z,1.4
2015-09-25T02:18:31.141Z,1.44
2015-09-25T02:18:43.532Z,1.39
2015-09-25T02:18:55.938Z,1.36
2015-09-25T02:19:08.328Z,1.4
2015-09-25T02:19:20.735Z,1.42
2015-09-25T02:19:33.160Z,1.51
2015-09-25T02:19:45.597Z,1.47
2015-09-25T02:19:58.019Z,1.5
2015-09-25T02:20:10.410Z,1.53
2015-09-25T02:20:22.800Z,1.48
2015-09-25T02:20:35.194Z,1.44
2015-09-25T02:20:47.584Z,1.44
2015-09-25T02:20:59.991Z,1.46
2015-09-25T02:21:12.381Z,1.46
2015-09-25T02:21:24.788Z,1.48
2015-09-25T02:21:37.196Z,1.48
2015-09-25T02:21:49.618Z,1.5
2015-09-25T02:22:02.040Z,1.48
2015-09-25T02:22:14.477Z,1.47
2015-09-25T02:22:26.899Z,1.48
2015-09-25T02:22:39.293Z,1.48
2015-09-25T02:22:51.699Z,1.51
2015-09-25T02:23:04.089Z,1.46
2015-09-25T02:23:16.480Z,1.42
2015-09-25T02:23:28.886Z,1.47
2015-09-25T02:23:41.280Z,1.39
2015-09-25T02:23:53.717Z,1.42
2015-09-25T02:24:06.139Z,1.51
2015-09-25T02:24:18.561Z,1.48
2015-09-25T02:24:30.983Z,1.39
2015-09-25T02:24:43.376Z,1.42
2015-09-25T02:24:55.766Z,1.47
2015-09-25T02:25:08.157Z,1.42
2015-09-25T02:25:20.548Z,1.46
2015-09-25T02:25:32.954Z,1.4
2015-09-25T02:25:45.347Z,1.36
2015-09-25T02:25:57.035Z,1.4
2015-09-25T02:26:09.472Z,1.32
2015-09-25T02:26:21.894Z,1.36
2015-09-25T02:26:34.316Z,1.32
2015-09-25T02:26:46.725Z,1.5
2015-09-25T02:26:59.132Z,1.39
2015-09-25T02:27:11.522Z,1.32
2015-09-25T02:27:23.913Z,1.33
2015-09-25T02:27:36.304Z,1.33
2015-09-25T02:27:48.712Z,1.33
2015-09-25T02:28:01.102Z,1.33
2015-09-25T02:28:13.368Z,1.36
2015-09-25T02:28:25.759Z,1.36
2015-09-25T02:28:38.196Z,1.3
2015-09-25T02:28:50.481Z,1.35
2015-09-25T02:29:02.903Z,1.35
2015-09-25T02:29:15.310Z,1.24
2015-09-25T02:29:27.716Z,1.3
2015-09-25T02:29:40.106Z,1.32
2015-09-25T02:29:52.499Z,1.26
2015-09-25T02:30:04.905Z,1.29
2015-09-25T02:30:17.296Z,1.28
2015-09-25T02:30:29.687Z,1.24
2015-09-25T02:30:42.096Z,1.21
2015-09-25T02:30:54.502Z,1.15
2015-09-25T02:31:06.940Z,1.17
2015-09-25T02:31:19.330Z,1.18
2015-09-25T02:31:31.721Z,1.1
2015-09-25T02:31:44.114Z,1.21
2015-09-25T02:31:56.521Z,1.18
2015-09-25T02:32:08.927Z,1.15
2015-09-25T02:32:21.349Z,1.17
2015-09-25T02:32:33.771Z,1.14
2015-09-25T02:32:46.179Z,1.11
2015-09-25T02:32:58.570Z,1.11
2015-09-25T02:33:10.960Z,1.1
2015-09-25T02:33:23.351Z,1.1
2015-09-25T02:33:35.054Z,1.11
2015-09-25T02:33:47.494Z,1.12
2015-09-25T02:33:59.885Z,1.08
2015-09-25T02:34:12.291Z,1.08
2015-09-25T02:34:24.713Z,1.08
2015-09-25T02:34:37.151Z,1.07
2015-09-25T02:34:49.543Z,1.02
2015-09-25T02:35:01.934Z,1.02
2015-09-25T02:35:14.325Z,1.04
2015-09-25T02:35:26.731Z,1.03
2015-09-25T02:35:39.121Z,1.03
2015-09-25T02:35:51.515Z,1.07
2015-09-25T02:36:03.921Z,1.03
2015-09-25T02:36:16.328Z,1.04
2015-09-25T02:36:28.734Z,0.99
2015-09-25T02:36:41.156Z,1
2015-09-25T02:36:53.549Z,1.02
2015-09-25T02:37:05.940Z,0.94
2015-09-25T02:37:18.331Z,0.93
2015-09-25T02:37:30.737Z,0.9
2015-09-25T02:37:42.409Z,0.93
2015-09-25T02:37:54.802Z,0.94
2015-09-25T02:38:07.209Z,0.93
2015-09-25T02:38:19.615Z,0.94
2015-09-25T02:38:32.052Z,0.89
2015-09-25T02:38:44.474Z,0.96
2015-09-25T02:38:56.868Z,0.9
2015-09-25T02:39:09.274Z,0.93
2015-09-25T02:39:21.665Z,0.92
2015-09-25T02:39:34.055Z,0.9
2015-09-25T02:39:46.462Z,0.86
2015-09-25T02:39:58.854Z,0.86
2015-09-25T02:40:11.276Z,0.79
2015-09-25T02:40:23.682Z,0.86
2015-09-25T02:40:36.104Z,0.81
2015-09-25T02:40:47.807Z,0.86
2015-09-25T02:41:00.201Z,0.81
2015-09-25T02:41:12.592Z,0.79
2015-09-25T02:41:24.998Z,0.81
2015-09-25T02:41:37.388Z,0.82
2015-09-25T02:41:49.798Z,0.81
2015-09-25T02:42:02.220Z,0.86
2015-09-25T02:42:13.938Z,0.82
2015-09-25T02:42:26.360Z,0.82
2015-09-25T02:42:38.626Z,0.78
2015-09-25T02:42:51.050Z,0.84
2015-09-25T02:43:03.440Z,0.9
2015-09-25T02:43:15.831Z,0.89
2015-09-25T02:43:28.222Z,1.02
2015-09-25T02:43:40.628Z,0.93
2015-09-25T02:43:53.021Z,1.1
2015-09-25T02:44:05.428Z,0.94
2015-09-25T02:44:17.834Z,1
2015-09-25T02:44:30.256Z,1.08
2015-09-25T02:44:42.678Z,1.11
2015-09-25T02:44:55.118Z,1.11
2015-09-25T02:45:07.540Z,1.14
2015-09-25T02:45:19.931Z,1.14
2015-09-25T02:45:32.321Z,1.18